Time;durP1;ratioP1;P1;durP2;ratioP2;P2;SDS_P1;SDS_P2;PMS_P1;PMS_P2;Temp;Humidity;BMP_temperature;BMP_pressure;BME280_temperature;BME280_humidity;BME280_pressure;Samples;Min_cycle;Max_cycle;Signal;HPM_P1;HPM_P2
2021/12/03 00:00:19;;;;;;;43.78;25.90;;;;;;;-1.09;100.00;100353.16;688753;28;1286;-53
2021/12/03 00:00:43;;;;;;;41.05;24.10;;;;;;;-1.11;100.00;100354.81;689061;28;1596;-54
2021/12/03 00:01:11;;;;;;;41.58;25.52;;;;;;;-1.13;100.00;100359.00;688688;28;4598;-52
2021/12/03 00:01:33;;;;;;;41.03;25.33;;;;;;;-1.14;100.00;100352.13;689679;28;1247;-53
2021/12/03 00:01:53;;;;;;;37.95;24.48;;;;;;;-1.13;100.00;100356.44;688952;28;3093;-55
2021/12/03 00:02:13;;;;;;;39.85;24.80;;;;;;;-1.14;100.00;100354.69;691476;28;1925;-53
2021/12/03 00:02:34;;;;;;;39.97;26.07;;;;;;;-1.16;100.00;100351.19;691944;28;1490;-51
2021/12/03 00:02:54;;;;;;;37.97;24.55;;;;;;;-1.15;100.00;100357.19;692079;28;865;-52
2021/12/03 00:03:15;;;;;;;38.63;25.20;;;;;;;-1.16;100.00;100358.91;691781;28;1448;-52
2021/12/03 00:03:36;;;;;;;37.50;24.98;;;;;;;-1.17;100.00;100357.13;689480;28;2150;-53
2021/12/03 00:03:57;;;;;;;33.63;24.08;;;;;;;-1.17;100.00;100352.00;691210;28;4436;-52
2021/12/03 00:04:17;;;;;;;34.13;23.55;;;;;;;-1.15;100.00;100355.53;689525;28;1299;-52
2021/12/03 00:04:38;;;;;;;32.55;22.45;;;;;;;-1.12;100.00;100354.72;691917;28;1606;-51
2021/12/03 00:04:58;;;;;;;32.40;21.87;;;;;;;-1.12;100.00;100353.06;691976;28;1906;-52
2021/12/03 00:05:21;;;;;;;32.55;22.80;;;;;;;-1.10;100.00;100355.69;691698;28;2494;-52
2021/12/03 00:05:42;;;;;;;32.25;22.20;;;;;;;-1.11;100.00;100354.81;691811;28;1238;-51
2021/12/03 00:06:02;;;;;;;28.55;20.88;;;;;;;-1.12;100.00;100357.31;689788;28;1277;-53
2021/12/03 00:06:23;;;;;;;25.00;19.97;;;;;;;-1.11;100.00;100357.38;691533;28;1304;-52
2021/12/03 00:06:44;;;;;;;25.83;20.15;;;;;;;-1.09;100.00;100353.16;689862;28;1914;-51
2021/12/03 00:07:04;;;;;;;26.98;19.73;;;;;;;-1.08;100.00;100354.94;690807;28;4411;-51
2021/12/03 00:07:25;;;;;;;25.10;19.60;;;;;;;-1.05;100.00;100365.28;690138;28;1273;-51
2021/12/03 00:07:45;;;;;;;25.80;19.92;;;;;;;-1.05;100.00;100357.59;689278;28;1416;-51
2021/12/03 00:08:06;;;;;;;24.33;19.40;;;;;;;-1.06;100.00;100354.97;689079;28;3290;-52
2021/12/03 00:08:27;;;;;;;23.70;18.95;;;;;;;-1.09;100.00;100358.31;688033;28;2279;-51
2021/12/03 00:08:48;;;;;;;23.33;18.17;;;;;;;-1.11;100.00;100348.78;689178;28;1281;-53
2021/12/03 00:09:08;;;;;;;23.47;18.17;;;;;;;-1.12;100.00;100357.31;689184;28;1231;-52
2021/12/03 00:09:34;;;;;;;24.13;18.98;;;;;;;-1.18;100.00;100360.50;691085;28;1642;-51
2021/12/03 00:09:54;;;;;;;23.33;18.70;;;;;;;-1.20;100.00;100351.91;690952;28;4563;-52
2021/12/03 00:10:16;;;;;;;23.87;18.60;;;;;;;-1.18;100.00;100351.94;692034;28;1471;-53
2021/12/03 00:10:38;;;;;;;24.58;18.55;;;;;;;-1.16;100.00;100355.44;691740;28;1494;-51
2021/12/03 00:11:01;;;;;;;23.52;18.17;;;;;;;-1.16;100.00;100353.75;690215;28;1582;-50
2021/12/03 00:11:22;;;;;;;23.48;18.05;;;;;;;-1.17;100.00;100353.72;690008;28;4360;-51
2021/12/03 00:11:42;;;;;;;24.00;18.10;;;;;;;-1.15;100.00;100358.09;691980;28;1372;-54
2021/12/03 00:12:04;;;;;;;23.00;18.20;;;;;;;-1.08;100.00;100352.38;692361;28;1309;-53
2021/12/03 00:12:24;;;;;;;24.20;18.90;;;;;;;-1.06;100.00;100352.41;691712;28;1369;-51
2021/12/03 00:12:45;;;;;;;23.70;18.75;;;;;;;-1.08;100.00;100360.06;692300;28;872;-54
2021/12/03 00:13:07;;;;;;;24.55;19.58;;;;;;;-1.16;100.00;100353.75;691529;28;4321;-51
2021/12/03 00:13:30;;;;;;;25.90;19.25;;;;;;;-1.22;100.00;100351.84;692032;28;1301;-52
2021/12/03 00:13:50;;;;;;;25.05;18.95;;;;;;;-1.23;100.00;100349.22;691828;28;1914;-53
2021/12/03 00:14:11;;;;;;;25.27;18.53;;;;;;;-1.25;100.00;100350.84;692246;28;1306;-54
2021/12/03 00:14:33;;;;;;;24.57;18.40;;;;;;;-1.26;100.00;100349.09;690464;28;3309;-54
2021/12/03 00:14:53;;;;;;;24.60;18.80;;;;;;;-1.28;100.00;100350.72;691767;28;1508;-51
2021/12/03 00:15:15;;;;;;;25.27;18.98;;;;;;;-1.30;100.00;100353.25;691450;28;1324;-51
2021/12/03 00:15:36;;;;;;;25.95;18.65;;;;;;;-1.34;100.00;100342.78;692320;28;1408;-50
2021/12/03 00:15:58;;;;;;;26.20;19.08;;;;;;;-1.33;100.00;100347.09;692008;28;4485;-50
2021/12/03 00:16:19;;;;;;;25.90;19.20;;;;;;;-1.34;100.00;100340.22;691556;28;1473;-55
2021/12/03 00:16:39;;;;;;;25.17;19.27;;;;;;;-1.31;100.00;100348.06;691024;28;1539;-54
2021/12/03 00:17:01;;;;;;;26.20;20.37;;;;;;;-1.28;100.00;100337.91;688954;28;1642;-51
2021/12/03 00:17:21;;;;;;;24.65;19.80;;;;;;;-1.28;100.00;100345.59;688458;28;2811;-53
2021/12/03 00:17:42;;;;;;;24.83;19.63;;;;;;;-1.28;100.00;100353.28;689404;28;3566;-51
2021/12/03 00:18:03;;;;;;;26.50;19.63;;;;;;;-1.28;100.00;100340.47;688603;28;1312;-53
2021/12/03 00:18:24;;;;;;;26.58;19.55;;;;;;;-1.29;100.00;100348.97;685773;28;1437;-53
2021/12/03 00:18:45;;;;;;;24.90;19.15;;;;;;;-1.32;100.00;100344.59;686653;28;1167;-54
2021/12/03 00:19:05;;;;;;;23.85;19.02;;;;;;;-1.31;100.00;100353.19;686413;28;4592;-51
2021/12/03 00:19:26;;;;;;;23.83;18.90;;;;;;;-1.31;100.00;100348.91;687287;28;1238;-50
2021/12/03 00:19:47;;;;;;;23.98;18.90;;;;;;;-1.31;100.00;100345.50;688517;28;1369;-51
2021/12/03 00:20:10;;;;;;;24.95;19.38;;;;;;;-1.30;100.00;100347.22;687784;28;1171;-54
2021/12/03 00:20:35;;;;;;;24.17;19.05;;;;;;;-1.31;100.00;100348.06;691646;28;1887;-54
2021/12/03 00:21:00;;;;;;;23.40;19.15;;;;;;;-1.32;100.00;100354.00;691491;28;2511;-50
2021/12/03 00:21:22;;;;;;;26.85;19.48;;;;;;;-1.34;100.00;100353.03;691940;28;1252;-51
2021/12/03 00:21:42;;;;;;;23.13;18.67;;;;;;;-1.37;100.00;100348.69;692149;28;1231;-51
2021/12/03 00:22:03;;;;;;;24.10;18.98;;;;;;;-1.36;100.00;100355.56;691425;28;4385;-53
2021/12/03 00:22:24;;;;;;;23.87;18.23;;;;;;;-1.29;100.00;100348.97;691564;28;1254;-51
2021/12/03 00:22:47;;;;;;;24.05;18.58;;;;;;;-1.24;100.00;100350.03;691973;28;1365;-52
2021/12/03 00:23:08;;;;;;;22.38;18.67;;;;;;;-1.23;100.00;100349.22;691971;28;1414;-51
2021/12/03 00:23:29;;;;;;;22.63;18.65;;;;;;;-1.22;100.00;100348.38;691773;28;1199;-56
2021/12/03 00:23:51;;;;;;;23.55;18.90;;;;;;;-1.20;100.00;100349.34;691990;28;3462;-51
2021/12/03 00:24:11;;;;;;;25.27;19.25;;;;;;;-1.18;100.00;100352.81;691671;28;1291;-52
2021/12/03 00:24:33;;;;;;;25.17;18.97;;;;;;;-1.17;100.00;100352.00;691221;28;1195;-52
2021/12/03 00:24:54;;;;;;;24.67;18.92;;;;;;;-1.18;100.00;100350.25;691612;28;4341;-54
2021/12/03 00:25:15;;;;;;;25.37;19.03;;;;;;;-1.23;100.00;100351.78;691629;28;1471;-53
2021/12/03 00:25:36;;;;;;;25.38;19.17;;;;;;;-1.27;100.00;100349.94;690039;28;1607;-53
2021/12/03 00:26:00;;;;;;;25.40;19.50;;;;;;;-1.29;100.00;100349.84;691163;28;1337;-51
2021/12/03 00:26:20;;;;;;;24.88;18.70;;;;;;;-1.30;100.00;100350.69;691176;28;1401;-51
2021/12/03 00:26:42;;;;;;;25.40;19.33;;;;;;;-1.26;100.00;100347.41;690336;28;2052;-52
2021/12/03 00:27:04;;;;;;;25.30;19.50;;;;;;;-1.22;100.00;100350.94;689824;28;3636;-55
2021/12/03 00:27:24;;;;;;;27.15;19.60;;;;;;;-1.17;100.00;100346.00;688849;28;1473;-51
2021/12/03 00:27:46;;;;;;;29.83;20.70;;;;;;;-1.21;100.00;100343.31;684304;28;1312;-51
2021/12/03 00:28:07;;;;;;;30.77;21.65;;;;;;;-1.25;100.00;100343.16;683526;28;4404;-54
2021/12/03 00:28:28;;;;;;;29.67;22.00;;;;;;;-1.27;100.00;100342.22;683311;28;1262;-52
2021/12/03 00:28:49;;;;;;;30.73;22.48;;;;;;;-1.28;100.00;100343.03;681331;28;1370;-50
2021/12/03 00:29:10;;;;;;;32.27;22.80;;;;;;;-1.29;100.00;100343.84;683329;28;908;-55
2021/12/03 00:29:30;;;;;;;32.47;22.42;;;;;;;-1.32;100.00;100343.75;686902;28;1439;-52
2021/12/03 00:29:50;;;;;;;31.13;22.10;;;;;;;-1.37;100.00;100341.88;689349;28;3042;-53
2021/12/03 00:30:14;;;;;;;33.67;22.63;;;;;;;-1.40;100.00;100348.56;689413;28;1366;-52
2021/12/03 00:30:36;;;;;;;32.03;22.55;;;;;;;-1.42;100.00;100345.06;690860;28;1394;-50
2021/12/03 00:30:58;;;;;;;31.63;22.20;;;;;;;-1.40;100.00;100352.03;690976;28;4361;-51
2021/12/03 00:31:19;;;;;;;30.15;21.58;;;;;;;-1.39;100.00;100347.75;691513;28;1052;-55
2021/12/03 00:31:39;;;;;;;29.16;21.10;;;;;;;-1.40;100.00;100352.03;691653;28;1729;-51
2021/12/03 00:32:00;;;;;;;26.47;20.40;;;;;;;-1.39;100.00;100351.19;691557;28;1421;-53
2021/12/03 00:32:20;;;;;;;27.40;21.08;;;;;;;-1.41;100.00;100351.97;692474;28;1204;-50
2021/12/03 00:32:41;;;;;;;29.87;21.63;;;;;;;-1.43;100.00;100349.31;692063;28;793;-53
2021/12/03 00:33:03;;;;;;;29.65;21.73;;;;;;;-1.44;100.00;100350.16;691643;28;3170;-50
2021/12/03 00:33:25;;;;;;;28.80;21.88;;;;;;;-1.44;100.00;100351.81;691537;28;1477;-52
2021/12/03 00:33:45;;;;;;;29.02;21.45;;;;;;;-1.48;100.00;100348.28;689360;28;1363;-52
2021/12/03 00:34:06;;;;;;;29.30;21.90;;;;;;;-1.47;100.00;100344.00;688633;28;4420;-52
2021/12/03 00:34:27;;;;;;;28.97;22.17;;;;;;;-1.47;100.00;100347.44;689037;28;1254;-53
2021/12/03 00:34:47;;;;;;;28.98;21.65;;;;;;;-1.46;100.00;100349.19;689461;28;872;-51
2021/12/03 00:35:09;;;;;;;27.55;20.73;;;;;;;-1.47;100.00;100346.56;689205;28;1381;-54
2021/12/03 00:35:30;;;;;;;29.73;20.98;;;;;;;-1.44;100.00;100352.72;689143;28;1167;-52
2021/12/03 00:35:52;;;;;;;29.42;21.38;;;;;;;-1.45;100.00;100352.66;692450;28;884;-53
2021/12/03 00:36:12;;;;;;;28.88;20.95;;;;;;;-1.45;100.00;100345.81;690883;28;3293;-52
2021/12/03 00:36:33;;;;;;;28.42;20.90;;;;;;;-1.44;100.00;100351.81;689402;28;1471;-55
2021/12/03 00:36:54;;;;;;;27.67;20.97;;;;;;;-1.45;100.00;100353.53;687951;28;4606;-53
2021/12/03 00:37:15;;;;;;;28.35;21.48;;;;;;;-1.45;100.00;100340.69;689399;28;1294;-53
2021/12/03 00:37:37;;;;;;;28.53;21.83;;;;;;;-1.43;100.00;100346.75;688228;28;1480;-53
2021/12/03 00:37:58;;;;;;;28.90;21.38;;;;;;;-1.40;100.00;100349.44;689353;28;1449;-53
2021/12/03 00:38:19;;;;;;;29.13;21.73;;;;;;;-1.38;100.00;100347.81;687188;28;1505;-51
2021/12/03 00:38:46;;;;;;;27.75;21.80;;;;;;;-1.35;100.00;100354.75;689396;28;1346;-51
2021/12/03 00:39:07;;;;;;;28.25;21.20;;;;;;;-1.37;100.00;100351.25;688749;28;4153;-52
2021/12/03 00:39:27;;;;;;;26.30;20.53;;;;;;;-1.38;100.00;100352.06;688439;28;2121;-52
2021/12/03 00:39:48;;;;;;;26.15;19.75;;;;;;;-1.34;100.00;100345.34;689602;28;1118;-51
2021/12/03 00:40:11;;;;;;;24.60;19.92;;;;;;;-1.33;100.00;100353.13;689831;28;4424;-56
2021/12/03 00:40:36;;;;;;;26.77;19.85;;;;;;;-1.32;100.00;100344.59;691972;28;1270;-51
2021/12/03 00:40:56;;;;;;;28.23;21.45;;;;;;;-1.33;100.00;100353.13;689379;28;1548;-51
2021/12/03 00:41:19;;;;;;;29.83;20.67;;;;;;;-1.39;100.00;100352.88;688656;28;1480;-53
2021/12/03 00:41:46;;;;;;;27.00;20.27;;;;;;;-1.42;100.00;100353.63;688845;28;1310;-54
2021/12/03 00:42:08;;;;;;;27.08;20.80;;;;;;;-1.38;100.00;100345.25;688860;28;1238;-53
2021/12/03 00:42:29;;;;;;;26.30;20.92;;;;;;;-1.33;100.00;100352.25;688787;28;3538;-52
2021/12/03 00:42:49;;;;;;;25.65;19.92;;;;;;;-1.31;100.00;100355.75;689036;28;1441;-52
2021/12/03 00:43:10;;;;;;;24.48;19.40;;;;;;;-1.29;100.00;100344.72;688214;28;4558;-54
2021/12/03 00:43:30;;;;;;;24.30;18.77;;;;;;;-1.23;100.00;100349.22;689272;28;1198;-53
2021/12/03 00:43:53;;;;;;;25.80;19.02;;;;;;;-1.23;100.00;100349.22;689390;28;1377;-52
2021/12/03 00:44:13;;;;;;;25.45;19.90;;;;;;;-1.27;100.00;100350.78;689057;28;1220;-52
2021/12/03 00:44:34;;;;;;;25.10;19.08;;;;;;;-1.27;100.00;100348.22;691539;28;1303;-52
2021/12/03 00:44:57;;;;;;;27.08;19.90;;;;;;;-1.30;100.00;100347.22;689043;28;1464;-54
2021/12/03 00:45:18;;;;;;;26.20;19.73;;;;;;;-1.32;100.00;100354.00;688384;28;1911;-51
2021/12/03 00:45:39;;;;;;;27.60;20.30;;;;;;;-1.35;100.00;100351.31;688845;28;1973;-53
2021/12/03 00:46:05;;;;;;;25.58;20.00;;;;;;;-1.38;100.00;100354.63;688178;28;4607;-52
2021/12/03 00:46:25;;;;;;;25.95;20.17;;;;;;;-1.41;100.00;100350.25;688817;28;1290;-52
2021/12/03 00:46:46;;;;;;;25.50;20.30;;;;;;;-1.44;100.00;100355.28;686232;28;1330;-51
2021/12/03 00:47:06;;;;;;;25.70;20.60;;;;;;;-1.46;100.00;100350.91;688709;28;1310;-53
2021/12/03 00:47:27;;;;;;;27.58;21.05;;;;;;;-1.46;100.00;100354.31;688921;28;1159;-54
2021/12/03 00:47:48;;;;;;;26.98;21.05;;;;;;;-1.44;100.00;100350.16;689505;28;1314;-53
2021/12/03 00:48:08;;;;;;;29.43;21.47;;;;;;;-1.43;100.00;100358.72;689120;28;1330;-55
2021/12/03 00:48:29;;;;;;;28.98;20.83;;;;;;;-1.40;100.00;100357.16;688931;28;3073;-51
2021/12/03 00:48:52;;;;;;;28.65;21.10;;;;;;;-1.42;100.00;100357.91;691927;28;3661;-51
2021/12/03 00:49:13;;;;;;;27.77;20.95;;;;;;;-1.41;100.00;100359.66;691587;28;5081;-51
2021/12/03 00:49:33;;;;;;;29.00;21.77;;;;;;;-1.37;100.00;100362.38;692264;28;1107;-52
2021/12/03 00:49:54;;;;;;;27.07;20.50;;;;;;;-1.30;100.00;100363.50;691549;28;1397;-52
2021/12/03 00:50:18;;;;;;;26.38;20.42;;;;;;;-1.27;100.00;100362.75;691585;28;1519;-51
2021/12/03 00:50:39;;;;;;;28.98;21.00;;;;;;;-1.26;100.00;100360.25;692027;28;1342;-55
2021/12/03 00:50:59;;;;;;;27.90;21.33;;;;;;;-1.25;100.00;100376.50;689120;28;1496;-53
2021/12/03 00:51:22;;;;;;;26.67;20.80;;;;;;;-1.18;100.00;100362.22;688537;28;1488;-53
2021/12/03 00:51:43;;;;;;;27.05;20.70;;;;;;;-1.16;100.00;100366.59;688545;28;3134;-52
2021/12/03 00:52:04;;;;;;;34.10;23.67;;;;;;;-1.14;100.00;100364.94;688180;28;4400;-54
2021/12/03 00:52:24;;;;;;;39.90;25.03;;;;;;;-1.13;100.00;100361.56;685865;28;1247;-55
2021/12/03 00:52:46;;;;;;;41.15;25.52;;;;;;;-1.10;100.00;100365.94;687810;28;1321;-52
2021/12/03 00:53:06;;;;;;;40.30;25.98;;;;;;;-1.08;100.00;100370.31;690111;28;1460;-52
2021/12/03 00:53:27;;;;;;;39.60;25.63;;;;;;;-1.07;100.00;100363.50;689845;28;1171;-54
2021/12/03 00:53:48;;;;;;;42.30;26.77;;;;;;;-1.05;100.00;100373.00;690439;28;1376;-52
2021/12/03 00:54:09;;;;;;;41.05;26.80;;;;;;;-1.00;100.00;100367.16;690435;28;1339;-51
2021/12/03 00:54:29;;;;;;;41.40;26.85;;;;;;;-1.01;100.00;100370.53;693985;28;1333;-53
2021/12/03 00:54:49;;;;;;;40.77;26.87;;;;;;;-1.01;100.00;100373.09;692441;28;3384;-53
2021/12/03 00:55:10;;;;;;;42.13;26.92;;;;;;;-1.01;100.00;100371.44;691532;28;4665;-51
2021/12/03 00:55:32;;;;;;;42.87;26.97;;;;;;;-0.99;100.00;100371.50;688490;28;1724;-51
2021/12/03 00:55:53;;;;;;;40.95;25.63;;;;;;;-0.96;100.00;100379.28;689040;28;1045;-52
2021/12/03 00:56:15;;;;;;;37.80;24.33;;;;;;;-0.93;100.00;100371.69;688840;28;1699;-51
2021/12/03 00:56:35;;;;;;;35.50;23.52;;;;;;;-0.93;100.00;100369.13;689060;28;1307;-51
2021/12/03 00:56:56;;;;;;;36.03;23.67;;;;;;;-0.94;100.00;100370.84;689066;28;1387;-51
2021/12/03 00:57:16;;;;;;;39.17;25.02;;;;;;;-0.95;100.00;100370.78;689126;28;1294;-55
2021/12/03 00:57:37;;;;;;;37.90;25.53;;;;;;;-0.97;100.00;100372.41;687412;28;1453;-51
2021/12/03 00:57:58;;;;;;;37.03;25.02;;;;;;;-1.00;100.00;100373.16;686537;28;4357;-52
2021/12/03 00:58:18;;;;;;;39.35;25.70;;;;;;;-1.00;100.00;100377.44;687757;28;1357;-51
2021/12/03 00:58:38;;;;;;;40.47;25.07;;;;;;;-1.01;100.00;100375.66;688060;28;1507;-51
2021/12/03 00:58:59;;;;;;;39.92;25.50;;;;;;;-1.01;100.00;100370.53;687066;28;1489;-51
2021/12/03 00:59:19;;;;;;;37.10;25.37;;;;;;;-1.00;100.00;100377.44;687548;28;1497;-53
2021/12/03 00:59:39;;;;;;;40.07;26.03;;;;;;;-1.00;100.00;100369.72;691621;28;1290;-52
2021/12/03 01:00:00;;;;;;;39.20;25.48;;;;;;;-1.00;100.00;100368.03;689219;28;1524;-56
2021/12/03 01:00:31;;;;;;;38.08;25.08;;;;;;;-1.05;100.00;100370.44;688399;28;1662;-51
2021/12/03 01:00:51;;;;;;;40.17;25.55;;;;;;;-1.05;100.00;100369.56;687967;28;4400;-51
2021/12/03 01:01:12;;;;;;;40.75;26.63;;;;;;;-1.10;100.00;100369.38;688360;28;2466;-53
2021/12/03 01:01:33;;;;;;;41.92;26.33;;;;;;;-1.11;100.00;100366.75;688228;28;1183;-52
2021/12/03 01:01:54;;;;;;;42.60;26.23;;;;;;;-1.11;100.00;100365.09;687736;28;1409;-53
2021/12/03 01:02:14;;;;;;;40.92;26.02;;;;;;;-1.13;100.00;100366.69;688846;28;1282;-52
2021/12/03 01:02:34;;;;;;;42.20;27.30;;;;;;;-1.13;100.00;100369.25;689128;28;1361;-52
2021/12/03 01:02:57;;;;;;;43.30;26.65;;;;;;;-1.14;100.00;100366.66;689069;28;1290;-51
2021/12/03 01:03:18;;;;;;;40.15;26.38;;;;;;;-1.15;100.00;100368.34;688234;28;1469;-55
2021/12/03 01:03:39;;;;;;;40.25;27.08;;;;;;;-1.16;100.00;100368.25;689884;28;1613;-54
2021/12/03 01:04:00;;;;;;;40.10;27.48;;;;;;;-1.16;100.00;100381.97;688481;28;4320;-51
2021/12/03 01:04:20;;;;;;;43.88;26.98;;;;;;;-1.17;100.00;100362.28;685741;28;3997;-53
2021/12/03 01:04:40;;;;;;;45.50;27.77;;;;;;;-1.19;100.00;100366.47;686091;28;1457;-56
2021/12/03 01:05:01;;;;;;;43.93;27.93;;;;;;;-1.18;100.00;100378.47;686285;28;1231;-51
2021/12/03 01:05:22;;;;;;;41.58;27.80;;;;;;;-1.17;100.00;100369.97;685373;28;1124;-51
2021/12/03 01:05:43;;;;;;;41.80;27.80;;;;;;;-1.15;100.00;100367.44;685289;28;1287;-54
2021/12/03 01:06:04;;;;;;;41.22;27.13;;;;;;;-1.12;100.00;100373.59;689224;28;1323;-52
2021/12/03 01:06:25;;;;;;;41.58;27.13;;;;;;;-1.11;100.00;100369.31;689221;28;1401;-53
2021/12/03 01:06:46;;;;;;;40.88;27.65;;;;;;;-1.09;100.00;100372.84;689677;28;1475;-51
2021/12/03 01:07:06;;;;;;;39.88;27.20;;;;;;;-1.09;100.00;100373.69;689405;28;4303;-53
2021/12/03 01:07:26;;;;;;;41.87;27.20;;;;;;;-1.09;100.00;100367.69;690960;28;3714;-52
2021/12/03 01:07:47;;;;;;;39.30;26.25;;;;;;;-1.07;100.00;100369.47;690693;28;1199;-55
2021/12/03 01:08:07;;;;;;;37.97;25.97;;;;;;;-1.05;100.00;100369.56;689026;28;1136;-54
2021/12/03 01:08:28;;;;;;;38.35;25.77;;;;;;;-1.04;100.00;100371.28;689028;28;1175;-52
2021/12/03 01:08:48;;;;;;;39.87;26.50;;;;;;;-1.03;100.00;100371.34;689165;28;1440;-53
2021/12/03 01:09:09;;;;;;;44.58;27.45;;;;;;;-1.01;100.00;100365.41;688344;28;1159;-55
2021/12/03 01:09:31;;;;;;;44.13;27.20;;;;;;;-1.01;100.00;100370.53;691517;28;1218;-53
2021/12/03 01:09:51;;;;;;;42.45;27.13;;;;;;;-0.99;100.00;100369.78;691475;28;4435;-52
2021/12/03 01:10:12;;;;;;;44.13;27.97;;;;;;;-1.00;100.00;100367.16;691340;28;3115;-53
2021/12/03 01:10:32;;;;;;;42.95;26.35;;;;;;;-1.00;100.00;100367.16;691392;28;3643;-52
2021/12/03 01:10:53;;;;;;;46.20;28.93;;;;;;;-0.98;100.00;100368.97;691417;28;1200;-52
2021/12/03 01:11:14;;;;;;;45.28;29.02;;;;;;;-0.98;100.00;100371.53;691443;28;1147;-54
2021/12/03 01:11:34;;;;;;;45.38;28.70;;;;;;;-0.98;100.00;100370.66;690325;28;1516;-52
2021/12/03 01:11:55;;;;;;;44.63;27.90;;;;;;;-0.96;100.00;100369.88;692140;28;1306;-53
2021/12/03 01:12:15;;;;;;;44.00;28.53;;;;;;;-0.94;100.00;100368.28;691581;28;1337;-52
2021/12/03 01:12:37;;;;;;;47.08;29.60;;;;;;;-0.94;100.00;100373.41;691975;28;1345;-54
2021/12/03 01:12:58;;;;;;;47.90;29.88;;;;;;;-0.94;100.00;100368.28;691416;28;4599;-53
2021/12/03 01:13:18;;;;;;;48.03;29.33;;;;;;;-0.93;100.00;100370.03;691543;28;2951;-52
2021/12/03 01:13:41;;;;;;;46.47;30.17;;;;;;;-0.92;100.00;100368.31;691543;28;1472;-54
2021/12/03 01:14:03;;;;;;;45.85;29.52;;;;;;;-0.91;100.00;100373.50;691291;28;1910;-52
2021/12/03 01:14:23;;;;;;;42.65;28.23;;;;;;;-0.89;100.00;100364.19;691673;28;1381;-53
2021/12/03 01:14:44;;;;;;;42.07;28.73;;;;;;;-0.87;100.00;100374.50;691868;28;1441;-51
2021/12/03 01:15:09;;;;;;;46.78;28.88;;;;;;;-0.88;100.00;100368.47;691782;28;1352;-51
2021/12/03 01:15:33;;;;;;;46.53;28.17;;;;;;;-0.89;100.00;100376.13;691860;28;1237;-53
2021/12/03 01:15:54;;;;;;;43.50;28.08;;;;;;;-0.90;100.00;100375.25;691354;28;4558;-54
2021/12/03 01:16:16;;;;;;;43.45;28.52;;;;;;;-0.89;100.00;100381.25;691198;28;3398;-55
2021/12/03 01:16:36;;;;;;;45.75;29.17;;;;;;;-0.92;100.00;100378.59;691607;28;3378;-53
2021/12/03 01:16:56;;;;;;;45.47;29.00;;;;;;;-0.92;100.00;100382.00;691116;28;2733;-51
2021/12/03 01:17:17;;;;;;;46.90;29.30;;;;;;;-0.90;100.00;100379.50;691148;28;1543;-54
2021/12/03 01:17:37;;;;;;;44.53;28.13;;;;;;;-0.91;100.00;100377.78;691612;28;1496;-51
2021/12/03 01:17:58;;;;;;;44.23;28.17;;;;;;;-0.89;100.00;100381.25;691980;28;1547;-51
2021/12/03 01:18:19;;;;;;;44.47;28.33;;;;;;;-0.90;100.00;100379.50;691672;28;1302;-51
2021/12/03 01:18:40;;;;;;;44.25;28.67;;;;;;;-0.88;100.00;100383.00;692393;28;1532;-54
2021/12/03 01:19:01;;;;;;;43.10;27.88;;;;;;;-0.80;100.00;100380.72;691579;28;4419;-54
2021/12/03 01:19:21;;;;;;;42.53;27.75;;;;;;;-0.74;100.00;100386.09;691298;28;3114;-53
2021/12/03 01:19:42;;;;;;;42.13;27.07;;;;;;;-0.74;100.00;100380.97;691424;28;3451;-52
2021/12/03 01:20:07;;;;;;;41.67;27.08;;;;;;;-0.74;100.00;100386.94;692080;28;1234;-51
2021/12/03 01:20:27;;;;;;;39.70;27.30;;;;;;;-0.72;100.00;100379.31;691424;28;1186;-53
2021/12/03 01:20:50;;;;;;;38.53;26.38;;;;;;;-0.70;100.00;100378.53;692073;28;1349;-55
2021/12/03 01:21:11;;;;;;;40.00;26.77;;;;;;;-0.70;100.00;100377.69;691989;28;1290;-51
2021/12/03 01:21:31;;;;;;;38.28;26.83;;;;;;;-0.69;100.00;100380.31;691995;28;1436;-53
2021/12/03 01:21:52;;;;;;;39.63;27.20;;;;;;;-0.67;100.00;100385.50;687609;28;4437;-54
2021/12/03 01:22:12;;;;;;;40.17;26.93;;;;;;;-0.66;100.00;100383.81;688548;28;1242;-54
2021/12/03 01:22:33;;;;;;;37.35;25.75;;;;;;;-0.65;100.00;100378.72;688882;28;1935;-54
2021/12/03 01:22:54;;;;;;;38.70;26.42;;;;;;;-0.65;100.00;100391.56;688779;28;2283;-53
2021/12/03 01:23:15;;;;;;;37.85;26.70;;;;;;;-0.66;100.00;100383.81;688485;28;1477;-53
2021/12/03 01:23:35;;;;;;;39.42;25.70;;;;;;;-0.66;100.00;100383.81;689386;28;1302;-52
2021/12/03 01:23:57;;;;;;;38.47;25.37;;;;;;;-0.67;100.00;100390.63;691444;28;1368;-52
2021/12/03 01:24:17;;;;;;;38.03;25.75;;;;;;;-0.67;100.00;100390.63;691367;28;1500;-51
2021/12/03 01:24:37;;;;;;;36.57;26.20;;;;;;;-0.66;100.00;100388.94;692095;28;1354;-52
2021/12/03 01:24:58;;;;;;;37.08;26.00;;;;;;;-0.66;100.00;100396.66;692025;28;4547;-53
2021/12/03 01:25:20;;;;;;;37.95;26.10;;;;;;;-0.65;100.00;100390.66;688658;28;1379;-52
2021/12/03 01:25:41;;;;;;;35.40;25.15;;;;;;;-0.65;100.00;100394.13;684970;28;2117;-52
2021/12/03 01:26:02;;;;;;;35.40;24.50;;;;;;;-0.65;100.00;100388.09;685791;28;3814;-52
2021/12/03 01:26:23;;;;;;;39.20;26.33;;;;;;;-0.65;100.00;100390.66;685822;28;1266;-52
2021/12/03 01:26:45;;;;;;;39.47;26.40;;;;;;;-0.64;100.00;100392.44;685193;28;1432;-51
2021/12/03 01:27:06;;;;;;;37.60;26.40;;;;;;;-0.66;100.00;100394.94;686146;28;1405;-52
2021/12/03 01:27:26;;;;;;;40.45;27.17;;;;;;;-0.66;100.00;100388.94;688396;28;1140;-53
2021/12/03 01:27:48;;;;;;;42.77;27.60;;;;;;;-0.67;100.00;100393.19;692115;28;1369;-52
2021/12/03 01:28:09;;;;;;;41.47;27.55;;;;;;;-0.67;100.00;100397.47;687906;28;4739;-52
2021/12/03 01:28:30;;;;;;;41.95;27.85;;;;;;;-0.69;100.00;100400.84;688073;28;1180;-53
2021/12/03 01:28:51;;;;;;;43.95;28.23;;;;;;;-0.67;100.00;100398.31;688504;28;3621;-53
2021/12/03 01:29:12;;;;;;;43.78;27.90;;;;;;;-0.68;100.00;100391.44;688847;28;1253;-53
2021/12/03 01:29:32;;;;;;;40.35;27.52;;;;;;;-0.67;100.00;100397.47;688782;28;1491;-55
2021/12/03 01:29:55;;;;;;;39.27;26.50;;;;;;;-0.67;100.00;100398.31;689554;28;1266;-54
2021/12/03 01:30:18;;;;;;;40.67;27.10;;;;;;;-0.48;100.00;100389.59;691759;28;1314;-54
2021/12/03 01:30:39;;;;;;;38.03;26.02;;;;;;;-0.33;100.00;100393.50;691664;28;1547;-52
2021/12/03 01:31:00;;;;;;;37.55;25.70;;;;;;;-0.19;100.00;100387.19;691496;28;4368;-51
2021/12/03 01:31:20;;;;;;;35.45;25.48;;;;;;;-0.19;100.00;100400.03;688750;28;1365;-52
2021/12/03 01:31:41;;;;;;;37.57;25.23;;;;;;;-0.23;100.00;100399.03;687371;28;1599;-53
2021/12/03 01:32:01;;;;;;;38.47;26.10;;;;;;;-0.31;100.00;100387.63;688910;28;3476;-53
2021/12/03 01:32:22;;;;;;;42.77;27.33;;;;;;;-0.35;100.00;100394.34;687983;28;1348;-54
2021/12/03 01:32:43;;;;;;;41.63;27.25;;;;;;;-0.35;100.00;100396.94;688690;28;1222;-56
2021/12/03 01:33:07;;;;;;;38.80;25.90;;;;;;;-0.37;100.00;100393.41;689525;28;1318;-54
2021/12/03 01:33:28;;;;;;;39.80;25.98;;;;;;;-0.40;100.00;100397.56;689379;28;1291;-55
2021/12/03 01:33:48;;;;;;;41.17;26.67;;;;;;;-0.41;100.00;100389.00;690156;28;1361;-52
2021/12/03 01:34:09;;;;;;;37.77;25.47;;;;;;;-0.41;100.00;100393.25;689397;28;4382;-52
2021/12/03 01:34:29;;;;;;;37.88;25.50;;;;;;;-0.41;100.00;100400.97;688428;28;1253;-52
2021/12/03 01:34:50;;;;;;;38.07;25.43;;;;;;;-0.44;100.00;100396.59;690280;28;1302;-52
2021/12/03 01:35:14;;;;;;;35.72;25.52;;;;;;;-0.44;100.00;100396.59;689425;28;3494;-54
2021/12/03 01:35:36;;;;;;;37.33;25.83;;;;;;;-0.45;100.00;100393.97;688444;28;1412;-52
2021/12/03 01:35:56;;;;;;;36.13;24.95;;;;;;;-0.46;100.00;100395.66;688571;28;997;-51
2021/12/03 01:36:17;;;;;;;36.17;24.93;;;;;;;-0.47;100.00;100399.06;688899;28;1523;-55
2021/12/03 01:36:37;;;;;;;35.63;24.58;;;;;;;-0.41;100.00;100391.56;688810;28;1381;-51
2021/12/03 01:36:58;;;;;;;34.57;24.40;;;;;;;-0.41;100.00;100391.56;688833;28;5510;-53
2021/12/03 01:37:18;;;;;;;33.20;23.87;;;;;;;-0.43;100.00;100390.66;689182;28;1388;-53
2021/12/03 01:37:39;;;;;;;33.53;24.00;;;;;;;-0.44;100.00;100391.44;691959;28;1519;-53